createdAt,value
2018-01-21T00:00:46.204Z,39.56
2018-01-21T00:01:46.266Z,39.66
2018-01-21T00:02:46.327Z,39.56
2018-01-21T00:03:46.389Z,39.56
2018-01-21T00:04:46.449Z,39.66
2018-01-21T00:05:46.510Z,39.56
2018-01-21T00:06:46.571Z,39.66
2018-01-21T00:07:46.634Z,39.66
2018-01-21T00:08:46.696Z,39.85
2018-01-21T00:09:46.757Z,39.76
2018-01-21T00:10:46.818Z,39.56
2018-01-21T00:11:46.878Z,39.56
2018-01-21T00:12:46.939Z,39.66
2018-01-21T00:13:47.001Z,39.76
2018-01-21T00:14:47.063Z,39.56
2018-01-21T00:15:47.127Z,39.66
2018-01-21T00:16:47.186Z,39.56
2018-01-21T00:17:47.248Z,39.47
2018-01-21T00:18:47.308Z,39.56
2018-01-21T00:19:47.369Z,39.66
2018-01-21T00:20:47.431Z,39.56
2018-01-21T00:21:47.491Z,39.47
2018-01-21T00:22:47.553Z,39.56
2018-01-21T00:23:47.617Z,39.76
2018-01-21T00:24:47.678Z,39.66
2018-01-21T00:25:47.736Z,39.95
2018-01-21T00:26:47.798Z,39.85
2018-01-21T00:27:47.859Z,39.56
2018-01-21T00:28:47.921Z,39.56
2018-01-21T00:29:47.981Z,39.66
2018-01-21T00:30:48.042Z,39.66
2018-01-21T00:31:48.111Z,39.66
2018-01-21T00:32:48.166Z,39.56
2018-01-21T00:33:48.227Z,40.33
2018-01-21T00:34:48.287Z,40.33
2018-01-21T00:35:48.350Z,39.95
2018-01-21T00:36:48.410Z,39.76
2018-01-21T00:37:48.470Z,39.66
2018-01-21T00:38:48.533Z,39.66
2018-01-21T00:39:48.595Z,39.76
2018-01-21T00:40:48.656Z,39.56
2018-01-21T00:41:48.716Z,39.66
2018-01-21T00:42:48.778Z,39.76
2018-01-21T00:43:48.844Z,39.95
2018-01-21T00:44:48.927Z,39.47
2018-01-21T00:45:48.962Z,39.95
2018-01-21T00:46:49.023Z,39.95
2018-01-21T00:47:49.084Z,39.66
2018-01-21T00:48:49.146Z,39.56
2018-01-21T00:49:49.206Z,39.66
2018-01-21T00:50:49.270Z,39.76
2018-01-21T00:51:49.330Z,39.56
2018-01-21T00:52:49.391Z,39.56
2018-01-21T00:53:49.451Z,39.95
2018-01-21T00:54:49.512Z,39.66
2018-01-21T00:55:49.574Z,39.56
2018-01-21T00:56:49.635Z,39.76
2018-01-21T00:57:49.696Z,39.76
2018-01-21T00:58:49.758Z,39.66
2018-01-21T00:59:49.820Z,39.56
2018-01-21T01:00:49.883Z,39.66
2018-01-21T01:01:49.941Z,39.66
2018-01-21T01:02:50.003Z,39.56
2018-01-21T01:03:50.063Z,39.66
2018-01-21T01:04:50.127Z,39.95
2018-01-21T01:05:50.185Z,39.76
2018-01-21T01:06:50.248Z,39.95
2018-01-21T01:07:50.308Z,39.85
2018-01-21T01:08:50.370Z,40.14
2018-01-21T01:09:50.433Z,39.76
2018-01-21T01:10:50.492Z,39.56
2018-01-21T01:11:50.555Z,39.85
2018-01-21T01:12:50.618Z,39.76
2018-01-21T01:13:50.709Z,39.95
2018-01-21T01:14:50.737Z,40.33
2018-01-21T01:15:50.798Z,39.85
2018-01-21T01:16:50.860Z,40.23
2018-01-21T01:17:50.921Z,40.43
2018-01-21T01:18:50.984Z,39.66
2018-01-21T01:19:51.096Z,40.33
2018-01-21T01:20:51.106Z,40.23
2018-01-21T01:21:51.165Z,39.85
2018-01-21T01:22:51.227Z,39.95
2018-01-21T01:23:51.289Z,40.43
2018-01-21T01:24:51.350Z,39.95
2018-01-21T01:25:51.411Z,40.33
2018-01-21T01:26:51.472Z,40.23
2018-01-21T01:27:51.535Z,40.33
2018-01-21T01:28:51.615Z,39.76
2018-01-21T01:29:51.655Z,39.76
2018-01-21T01:30:51.716Z,39.76
2018-01-21T01:31:51.778Z,40.05
2018-01-21T01:32:51.840Z,39.76
2018-01-21T01:33:51.901Z,39.95
2018-01-21T01:34:51.962Z,39.85
2018-01-21T01:35:52.023Z,39.95
2018-01-21T01:36:52.086Z,39.56
2018-01-21T01:37:52.146Z,39.56
2018-01-21T01:38:52.207Z,39.76
2018-01-21T01:39:52.269Z,39.76
2018-01-21T01:40:52.330Z,39.95
2018-01-21T01:41:52.392Z,39.66
2018-01-21T01:42:52.454Z,39.56
2018-01-21T01:43:52.515Z,39.66
2018-01-21T01:44:52.576Z,39.56
2018-01-21T01:45:52.634Z,39.66
2018-01-21T01:46:52.696Z,39.56
2018-01-21T01:47:52.759Z,39.56
2018-01-21T01:48:52.819Z,39.56
2018-01-21T01:49:52.880Z,39.95
2018-01-21T01:50:52.942Z,39.95
2018-01-21T01:51:53.005Z,39.66
2018-01-21T01:52:53.064Z,39.56
2018-01-21T01:53:53.127Z,39.66
2018-01-21T01:54:53.187Z,39.56
2018-01-21T01:55:53.247Z,39.56
2018-01-21T01:56:53.308Z,39.56
2018-01-21T01:57:53.369Z,39.56
2018-01-21T01:58:53.431Z,39.66
2018-01-21T01:59:53.492Z,39.66
2018-01-21T02:00:53.556Z,39.66
2018-01-21T02:01:53.614Z,39.66
2018-01-21T02:02:53.677Z,39.56
2018-01-21T02:03:53.736Z,39.66
2018-01-21T02:04:53.799Z,39.56
2018-01-21T02:05:53.860Z,39.56
2018-01-21T02:06:53.921Z,39.66
2018-01-21T02:07:53.983Z,39.56
2018-01-21T02:08:54.043Z,39.56
2018-01-21T02:09:54.104Z,39.47
2018-01-21T02:10:54.166Z,39.56
2018-01-21T02:11:54.226Z,39.56
2018-01-21T02:12:54.287Z,39.56
2018-01-21T02:13:54.348Z,39.47
2018-01-21T02:14:54.410Z,39.56
2018-01-21T02:15:54.572Z,39.47
2018-01-21T02:16:54.532Z,39.66
2018-01-21T02:17:54.593Z,39.56
2018-01-21T02:18:54.657Z,39.66
2018-01-21T02:19:54.716Z,39.56
2018-01-21T02:20:54.777Z,39.47
2018-01-21T02:21:54.838Z,39.37
2018-01-21T02:22:54.899Z,39.66
2018-01-21T02:23:54.960Z,39.47
2018-01-21T02:24:55.022Z,39.66
2018-01-21T02:25:55.083Z,39.47
2018-01-21T02:26:55.144Z,39.56
2018-01-21T02:27:55.206Z,39.47
2018-01-21T02:28:55.267Z,39.47
2018-01-21T02:29:55.328Z,39.66
2018-01-21T02:30:55.389Z,39.66
2018-01-21T02:31:55.454Z,39.47
2018-01-21T02:32:55.512Z,39.37
2018-01-21T02:33:55.572Z,39.47
2018-01-21T02:34:55.633Z,39.56
2018-01-21T02:35:55.750Z,39.56
2018-01-21T02:36:55.757Z,39.66
2018-01-21T02:37:55.817Z,39.66
2018-01-21T02:38:55.880Z,39.47
2018-01-21T02:39:55.940Z,39.47
2018-01-21T02:40:56.003Z,39.56
2018-01-21T02:41:56.062Z,39.47
2018-01-21T02:42:56.124Z,39.47
2018-01-21T02:43:56.187Z,39.66
2018-01-21T02:44:56.248Z,39.66
2018-01-21T02:45:56.308Z,39.56
2018-01-21T02:46:56.370Z,39.66
2018-01-21T02:47:56.431Z,39.66
2018-01-21T02:48:56.492Z,39.56
2018-01-21T02:49:56.552Z,39.66
2018-01-21T02:50:56.613Z,39.37
2018-01-21T02:51:56.677Z,39.56
2018-01-21T02:52:56.748Z,39.56
2018-01-21T02:53:56.797Z,39.56
2018-01-21T02:54:56.860Z,39.47
2018-01-21T02:55:56.921Z,39.56
2018-01-21T02:56:56.981Z,39.47
2018-01-21T02:57:57.041Z,39.66
2018-01-21T02:58:57.103Z,39.66
2018-01-21T02:59:57.171Z,39.66
2018-01-21T03:00:57.226Z,39.47
2018-01-21T03:01:57.287Z,39.56
2018-01-21T03:02:57.350Z,39.47
2018-01-21T03:03:57.410Z,39.56
2018-01-21T03:04:57.471Z,39.56
2018-01-21T03:05:57.531Z,39.47
2018-01-21T03:06:57.593Z,39.47
2018-01-21T03:07:57.654Z,39.56
2018-01-21T03:08:57.717Z,39.47
2018-01-21T03:09:57.777Z,39.37
2018-01-21T03:10:57.838Z,39.47
2018-01-21T03:11:57.898Z,39.47
2018-01-21T03:12:57.962Z,39.47
2018-01-21T03:13:58.022Z,39.37
2018-01-21T03:14:58.083Z,39.56
2018-01-21T03:15:58.143Z,39.56
2018-01-21T03:16:58.206Z,39.56
2018-01-21T03:17:58.265Z,39.66
2018-01-21T03:18:58.327Z,39.56
2018-01-21T03:19:58.389Z,39.47
2018-01-21T03:20:58.451Z,39.66
2018-01-21T03:21:58.511Z,39.47
2018-01-21T03:22:58.572Z,39.47
2018-01-21T03:23:58.633Z,39.47
2018-01-21T03:24:58.695Z,39.47
2018-01-21T03:25:58.757Z,39.37
2018-01-21T03:26:58.819Z,39.47
2018-01-21T03:27:58.878Z,39.47
2018-01-21T03:28:58.940Z,39.47
2018-01-21T03:29:59.001Z,39.37
2018-01-21T03:30:59.063Z,39.37
2018-01-21T03:31:59.124Z,39.37
2018-01-21T03:32:59.185Z,39.37
2018-01-21T03:33:59.246Z,39.47
2018-01-21T03:34:59.307Z,39.47
2018-01-21T03:35:59.368Z,39.37
2018-01-21T03:36:59.432Z,39.47
2018-01-21T03:37:59.495Z,39.47
2018-01-21T03:38:59.553Z,39.47
2018-01-21T03:39:59.613Z,39.37
2018-01-21T03:40:59.674Z,39.47
2018-01-21T03:41:59.739Z,39.56
2018-01-21T03:42:59.796Z,39.37
2018-01-21T03:43:59.857Z,39.47
2018-01-21T03:44:59.919Z,39.56
2018-01-21T03:45:59.984Z,39.47
2018-01-21T03:47:00.043Z,39.56
2018-01-21T03:48:00.103Z,39.47
2018-01-21T03:49:00.164Z,39.37
2018-01-21T03:50:00.224Z,39.37
2018-01-21T03:51:00.286Z,39.47
2018-01-21T03:52:00.348Z,39.37
2018-01-21T03:53:00.411Z,39.47
2018-01-21T03:54:00.474Z,39.37
2018-01-21T03:55:00.531Z,39.47
2018-01-21T03:56:00.593Z,39.37
2018-01-21T03:57:00.654Z,39.47
2018-01-21T03:58:00.714Z,39.37
2018-01-21T03:59:00.775Z,39.47
2018-01-21T04:00:00.837Z,39.37
2018-01-21T04:01:00.902Z,39.56
2018-01-21T04:02:00.960Z,39.37
2018-01-21T04:03:01.021Z,39.47
2018-01-21T04:04:01.082Z,39.47
2018-01-21T04:05:01.143Z,39.47
2018-01-21T04:06:01.204Z,39.47
2018-01-21T04:07:01.265Z,39.47
2018-01-21T04:08:01.327Z,39.47
2018-01-21T04:09:01.389Z,39.56
2018-01-21T04:10:01.449Z,39.56
2018-01-21T04:11:01.509Z,39.47
2018-01-21T04:12:01.573Z,39.66
2018-01-21T04:13:01.634Z,39.47
2018-01-21T04:14:01.693Z,39.56
2018-01-21T04:15:01.756Z,39.56
2018-01-21T04:16:01.825Z,39.37
2018-01-21T04:17:01.878Z,39.47
2018-01-21T04:18:01.937Z,39.47
2018-01-21T04:19:02.002Z,39.47
2018-01-21T04:20:02.061Z,39.56
2018-01-21T04:21:02.124Z,39.56
2018-01-21T04:22:02.189Z,39.37
2018-01-21T04:23:02.245Z,39.37
2018-01-21T04:24:02.305Z,39.37
2018-01-21T04:25:02.367Z,39.56
2018-01-21T04:26:02.428Z,39.47
2018-01-21T04:27:02.489Z,39.56
2018-01-21T04:28:02.551Z,39.56
2018-01-21T04:29:02.611Z,39.56
2018-01-21T04:30:02.672Z,39.56
2018-01-21T04:31:02.733Z,39.47
2018-01-21T04:32:02.795Z,39.37
2018-01-21T04:33:02.856Z,39.47
2018-01-21T04:34:02.918Z,39.66
2018-01-21T04:35:02.978Z,39.66
2018-01-21T04:36:03.040Z,39.66
2018-01-21T04:37:03.101Z,39.66
2018-01-21T04:38:03.168Z,39.66
2018-01-21T04:39:03.224Z,39.37
2018-01-21T04:40:03.284Z,39.47
2018-01-21T04:41:03.347Z,39.37
2018-01-21T04:42:03.408Z,39.37
2018-01-21T04:43:03.472Z,39.56
2018-01-21T04:44:03.530Z,39.56
2018-01-21T04:45:03.592Z,39.47
2018-01-21T04:46:03.651Z,39.66
2018-01-21T04:47:03.712Z,39.37
2018-01-21T04:48:03.774Z,39.47
2018-01-21T04:49:03.840Z,39.47
2018-01-21T04:50:03.896Z,39.47
2018-01-21T04:51:03.958Z,39.37
2018-01-21T04:52:04.018Z,39.47
2018-01-21T04:53:04.080Z,39.47
2018-01-21T04:54:04.146Z,39.56
2018-01-21T04:55:04.202Z,39.47
2018-01-21T04:56:04.263Z,39.47
2018-01-21T04:57:04.326Z,39.47
2018-01-21T04:58:04.385Z,39.47
2018-01-21T04:59:04.448Z,39.56
2018-01-21T05:00:04.508Z,39.56
2018-01-21T05:01:04.569Z,39.47
2018-01-21T05:02:04.631Z,39.56
2018-01-21T05:03:04.691Z,39.47
2018-01-21T05:04:04.753Z,39.56
2018-01-21T05:05:04.814Z,39.37
2018-01-21T05:06:04.874Z,39.47
2018-01-21T05:07:04.936Z,39.47
2018-01-21T05:08:04.997Z,39.56
2018-01-21T05:09:05.059Z,39.56
2018-01-21T05:10:05.120Z,39.56
2018-01-21T05:11:05.180Z,39.47
2018-01-21T05:12:05.242Z,39.37
2018-01-21T05:13:05.304Z,39.47
2018-01-21T05:14:05.365Z,39.47
2018-01-21T05:15:05.425Z,39.47
2018-01-21T05:16:05.488Z,39.47
2018-01-21T05:17:05.549Z,39.47
2018-01-21T05:18:05.610Z,39.47
2018-01-21T05:19:05.670Z,39.47
2018-01-21T05:20:05.732Z,39.37
2018-01-21T05:21:05.793Z,39.66
2018-01-21T05:22:05.854Z,39.56
2018-01-21T05:23:05.915Z,39.56
2018-01-21T05:24:05.977Z,39.47
2018-01-21T05:25:06.038Z,39.47
2018-01-21T05:26:06.099Z,39.37
2018-01-21T05:27:06.160Z,39.37
2018-01-21T05:28:06.221Z,39.47
2018-01-21T05:29:06.282Z,39.56
2018-01-21T05:30:06.344Z,39.47
2018-01-21T05:31:06.404Z,39.47
2018-01-21T05:32:06.467Z,39.47
2018-01-21T05:33:06.532Z,39.47
2018-01-21T05:34:06.590Z,39.47
2018-01-21T05:35:06.651Z,39.47
2018-01-21T05:36:06.714Z,39.47
2018-01-21T05:37:06.771Z,39.47
2018-01-21T05:38:06.832Z,39.47
2018-01-21T05:39:06.896Z,39.56
2018-01-21T05:40:06.955Z,39.66
2018-01-21T05:41:07.016Z,39.37
2018-01-21T05:42:07.077Z,39.47
2018-01-21T05:43:07.139Z,39.47
2018-01-21T05:44:07.202Z,39.47
2018-01-21T05:45:07.264Z,39.47
2018-01-21T05:46:07.321Z,39.47
2018-01-21T05:47:07.384Z,39.47
2018-01-21T05:48:07.446Z,39.47
2018-01-21T05:49:07.507Z,39.47
2018-01-21T05:50:07.568Z,39.47
2018-01-21T05:51:07.627Z,39.47
2018-01-21T05:52:07.690Z,39.47
2018-01-21T05:53:07.752Z,39.37
2018-01-21T05:54:07.810Z,39.47
2018-01-21T05:55:07.873Z,39.45
2018-01-21T05:56:07.935Z,39.56
2018-01-21T05:57:07.995Z,39.47
2018-01-21T05:58:08.057Z,39.47
2018-01-21T05:59:08.117Z,39.47
2018-01-21T06:00:08.179Z,39.47
2018-01-21T06:01:08.240Z,39.47
2018-01-21T06:02:08.300Z,39.47
2018-01-21T06:03:08.362Z,39.47
2018-01-21T06:04:08.422Z,39.56
2018-01-21T06:05:08.485Z,39.47
2018-01-21T06:06:08.545Z,39.66
2018-01-21T06:07:08.607Z,39.47
2018-01-21T06:08:08.671Z,39.56
2018-01-21T06:09:08.732Z,39.47
2018-01-21T06:10:08.789Z,39.47
2018-01-21T06:11:08.850Z,39.56
2018-01-21T06:12:08.937Z,39.47
2018-01-21T06:13:08.973Z,39.37
2018-01-21T06:14:09.033Z,39.47
2018-01-21T06:15:09.094Z,39.37
2018-01-21T06:16:09.160Z,39.47
2018-01-21T06:17:09.219Z,39.66
2018-01-21T06:18:09.283Z,39.47
2018-01-21T06:19:09.339Z,39.47
2018-01-21T06:20:09.402Z,39.47
2018-01-21T06:21:09.464Z,39.37
2018-01-21T06:22:09.524Z,39.47
2018-01-21T06:23:09.585Z,39.56
2018-01-21T06:24:09.645Z,39.47
2018-01-21T06:25:09.708Z,39.54
2018-01-21T06:26:09.772Z,39.37
2018-01-21T06:27:09.828Z,39.35
2018-01-21T06:28:09.891Z,39.47
2018-01-21T06:29:09.951Z,39.56
2018-01-21T06:30:10.017Z,39.37
2018-01-21T06:31:10.075Z,39.47
2018-01-21T06:32:10.135Z,39.37
2018-01-21T06:33:10.197Z,39.37
2018-01-21T06:34:10.257Z,39.54
2018-01-21T06:35:10.319Z,39.47
2018-01-21T06:36:10.385Z,39.47
2018-01-21T06:37:10.441Z,39.35
2018-01-21T06:38:10.502Z,39.64
2018-01-21T06:39:10.564Z,39.47
2018-01-21T06:40:10.626Z,39.47
2018-01-21T06:41:10.685Z,39.47
2018-01-21T06:42:10.747Z,39.35
2018-01-21T06:43:10.807Z,39.45
2018-01-21T06:44:10.869Z,39.54
2018-01-21T06:45:10.932Z,39.47
2018-01-21T06:46:10.990Z,39.54
2018-01-21T06:47:11.052Z,39.64
2018-01-21T06:48:11.112Z,39.56
2018-01-21T06:49:11.175Z,39.47
2018-01-21T06:50:11.235Z,39.54
2018-01-21T06:51:11.296Z,39.66
2018-01-21T06:52:11.358Z,39.54
2018-01-21T06:53:11.419Z,39.45
2018-01-21T06:54:11.480Z,39.54
2018-01-21T06:55:11.541Z,39.56
2018-01-21T06:56:11.601Z,39.47
2018-01-21T06:57:11.664Z,39.54
2018-01-21T06:58:11.723Z,39.47
2018-01-21T06:59:11.785Z,39.37
2018-01-21T07:00:11.845Z,39.45
2018-01-21T07:01:11.906Z,39.54
2018-01-21T07:02:11.968Z,39.47
2018-01-21T07:03:12.030Z,39.47
2018-01-21T07:04:12.089Z,39.56
2018-01-21T07:05:12.152Z,39.45
2018-01-21T07:06:12.211Z,39.37
2018-01-21T07:07:12.273Z,39.64
2018-01-21T07:08:12.335Z,39.47
2018-01-21T07:09:12.395Z,39.47
2018-01-21T07:10:12.456Z,39.47
2018-01-21T07:11:12.518Z,39.47
2018-01-21T07:12:12.579Z,39.64
2018-01-21T07:13:12.642Z,39.54
2018-01-21T07:14:12.700Z,39.54
2018-01-21T07:15:12.762Z,39.54
2018-01-21T07:16:12.823Z,39.45
2018-01-21T07:17:12.885Z,39.45
2018-01-21T07:18:12.945Z,39.64
2018-01-21T07:19:13.007Z,39.56
2018-01-21T07:20:13.068Z,39.56
2018-01-21T07:21:13.129Z,39.64
2018-01-21T07:22:13.191Z,39.76
2018-01-21T07:23:13.251Z,39.45
2018-01-21T07:24:13.312Z,39.66
2018-01-21T07:25:13.373Z,39.45
2018-01-21T07:26:13.435Z,39.37
2018-01-21T07:27:13.497Z,39.37
2018-01-21T07:28:13.556Z,39.47
2018-01-21T07:29:13.617Z,39.47
2018-01-21T07:30:13.677Z,39.37
2018-01-21T07:31:13.741Z,39.35
2018-01-21T07:32:13.802Z,39.56
2018-01-21T07:33:13.862Z,39.37
2018-01-21T07:34:13.922Z,39.45
2018-01-21T07:35:13.984Z,39.47
2018-01-21T07:36:14.046Z,39.47
2018-01-21T07:37:14.107Z,39.37
2018-01-21T07:38:14.166Z,39.56
2018-01-21T07:39:14.229Z,39.47
2018-01-21T07:40:14.289Z,39.47
2018-01-21T07:41:14.351Z,39.47
2018-01-21T07:42:14.411Z,39.28
2018-01-21T07:43:14.472Z,39.56
2018-01-21T07:44:14.534Z,39.47
2018-01-21T07:45:14.596Z,39.56
2018-01-21T07:46:14.656Z,39.28
2018-01-21T07:47:14.716Z,39.47
2018-01-21T07:48:14.777Z,39.37
2018-01-21T07:49:14.839Z,39.37
2018-01-21T07:50:14.900Z,39.47
2018-01-21T07:51:14.961Z,39.18
2018-01-21T07:52:15.023Z,38.99
2018-01-21T07:53:15.084Z,39.18
2018-01-21T07:54:15.144Z,39.18
2018-01-21T07:55:15.206Z,39.18
2018-01-21T07:56:15.267Z,39.28
2018-01-21T07:57:15.329Z,39.18
2018-01-21T07:58:15.388Z,39.37
2018-01-21T07:59:15.449Z,39.28
2018-01-21T08:00:15.513Z,39.37
2018-01-21T08:01:15.574Z,39.28
2018-01-21T08:02:15.632Z,39.37
2018-01-21T08:03:15.695Z,39.28
2018-01-21T08:04:15.755Z,39.18
2018-01-21T08:05:15.818Z,39.28
2018-01-21T08:06:15.877Z,39.37
2018-01-21T08:07:15.938Z,39.28
2018-01-21T08:08:16.001Z,39.18
2018-01-21T08:09:16.062Z,39.28
2018-01-21T08:10:16.123Z,39.18
2018-01-21T08:11:16.184Z,39.37
2018-01-21T08:12:16.244Z,39.28
2018-01-21T08:13:16.315Z,39.28
2018-01-21T08:14:16.367Z,39.18
2018-01-21T08:15:16.429Z,39.37
2018-01-21T08:16:16.488Z,39.28
2018-01-21T08:17:16.550Z,39.28
2018-01-21T08:18:16.611Z,39.08
2018-01-21T08:19:16.672Z,39.28
2018-01-21T08:20:16.733Z,38.99
2018-01-21T08:21:16.794Z,38.89
2018-01-21T08:22:16.855Z,38.89
2018-01-21T08:23:16.918Z,38.89
2018-01-21T08:24:16.978Z,38.89
2018-01-21T08:25:17.041Z,38.89
2018-01-21T08:26:17.100Z,38.79
2018-01-21T08:27:17.162Z,38.79
2018-01-21T08:28:17.222Z,38.89
2018-01-21T08:29:17.286Z,38.89
2018-01-21T08:30:17.345Z,38.89
2018-01-21T08:31:17.407Z,38.79
2018-01-21T08:32:17.471Z,38.70
2018-01-21T08:33:17.529Z,38.99
2018-01-21T08:34:17.590Z,38.99
2018-01-21T08:35:17.651Z,38.89
2018-01-21T08:36:17.713Z,38.89
2018-01-21T08:37:17.774Z,38.89
2018-01-21T08:38:17.836Z,38.89
2018-01-21T08:39:17.897Z,38.99
2018-01-21T08:40:17.958Z,38.79
2018-01-21T08:41:18.018Z,38.89
2018-01-21T08:42:18.084Z,38.79
2018-01-21T08:43:18.139Z,38.89
2018-01-21T08:44:18.202Z,38.79
2018-01-21T08:45:18.264Z,38.79
2018-01-21T08:46:18.322Z,38.89
2018-01-21T08:47:18.385Z,38.89
2018-01-21T08:48:18.447Z,38.89
2018-01-21T08:49:18.508Z,38.22
2018-01-21T08:50:18.570Z,39.08
2018-01-21T08:51:18.629Z,38.22
2018-01-21T08:52:18.691Z,38.53
2018-01-21T08:53:18.753Z,38.51
2018-01-21T08:54:18.814Z,38.43
2018-01-21T08:55:18.875Z,38.43
2018-01-21T08:56:18.937Z,38.51
2018-01-21T08:57:18.998Z,38.62
2018-01-21T08:58:19.060Z,38.72
2018-01-21T08:59:19.120Z,38.72
2018-01-21T09:00:19.181Z,38.62
2018-01-21T09:01:19.243Z,38.62
2018-01-21T09:02:19.303Z,38.62
2018-01-21T09:03:19.365Z,38.72
2018-01-21T09:04:19.427Z,38.72
2018-01-21T09:05:19.488Z,38.62
2018-01-21T09:06:19.549Z,38.62
2018-01-21T09:07:19.610Z,38.53
2018-01-21T09:08:19.672Z,38.53
2018-01-21T09:09:19.733Z,38.62
2018-01-21T09:10:19.795Z,38.34
2018-01-21T09:11:19.855Z,38.43
2018-01-21T09:12:19.919Z,37.95
2018-01-21T09:13:19.978Z,38.14
2018-01-21T09:14:20.040Z,37.95
2018-01-21T09:15:20.099Z,37.95
2018-01-21T09:16:20.162Z,38.04
2018-01-21T09:17:20.225Z,37.95
2018-01-21T09:18:20.285Z,38.04
2018-01-21T09:19:20.345Z,38.34
2018-01-21T09:20:20.408Z,38.04
2018-01-21T09:21:20.468Z,38.34
2018-01-21T09:22:20.528Z,38.34
2018-01-21T09:23:20.591Z,38.24
2018-01-21T09:24:20.652Z,37.85
2018-01-21T09:25:20.715Z,37.95
2018-01-21T09:26:20.775Z,37.85
2018-01-21T09:27:20.876Z,37.85
2018-01-21T09:28:20.897Z,37.85
2018-01-21T09:29:20.959Z,37.66
2018-01-21T09:30:21.020Z,37.76
2018-01-21T09:31:21.081Z,37.85
2018-01-21T09:32:21.142Z,37.76
2018-01-21T09:33:21.206Z,37.76
2018-01-21T09:34:21.265Z,37.76
2018-01-21T09:35:21.327Z,37.85
2018-01-21T09:36:21.390Z,38.14
2018-01-21T09:37:21.450Z,38.24
2018-01-21T09:38:21.512Z,38.04
2018-01-21T09:39:21.573Z,37.95
2018-01-21T09:40:21.635Z,37.95
2018-01-21T09:41:21.697Z,38.14
2018-01-21T09:42:21.756Z,37.66
2018-01-21T09:43:21.817Z,37.95
2018-01-21T09:44:21.879Z,38.14
2018-01-21T09:45:21.942Z,37.66
2018-01-21T09:46:22.003Z,37.76
2018-01-21T09:47:22.065Z,37.66
2018-01-21T09:48:22.125Z,37.47
2018-01-21T09:49:22.188Z,37.66
2018-01-21T09:50:22.249Z,37.66
2018-01-21T09:51:22.309Z,38.14
2018-01-21T09:52:22.372Z,38.14
2018-01-21T09:53:22.434Z,37.37
2018-01-21T09:54:22.496Z,37.95
2018-01-21T09:55:22.555Z,37.57
2018-01-21T09:56:22.616Z,38.14
2018-01-21T09:57:22.679Z,37.87
2018-01-21T09:58:22.739Z,37.85
2018-01-21T09:59:22.801Z,37.76
2018-01-21T10:00:22.863Z,37.77
2018-01-21T10:01:22.925Z,37.97
2018-01-21T10:02:22.985Z,37.68
2018-01-21T10:03:23.046Z,37.68
2018-01-21T10:04:23.109Z,37.95
2018-01-21T10:05:23.172Z,37.87
2018-01-21T10:06:23.231Z,37.97
2018-01-21T10:07:23.294Z,37.97
2018-01-21T10:08:23.356Z,37.85
2018-01-21T10:09:23.416Z,37.97
2018-01-21T10:10:23.476Z,37.76
2018-01-21T10:11:23.538Z,37.76
2018-01-21T10:12:23.600Z,37.76
2018-01-21T10:13:23.663Z,37.76
2018-01-21T10:14:23.723Z,37.85
2018-01-21T10:15:23.785Z,37.68
2018-01-21T10:16:23.846Z,37.68
2018-01-21T10:17:23.909Z,37.49
2018-01-21T10:18:23.968Z,37.39
2018-01-21T10:19:24.032Z,37.30
2018-01-21T10:20:24.093Z,37.49
2018-01-21T10:21:24.154Z,37.39
2018-01-21T10:22:24.215Z,37.49
2018-01-21T10:23:24.277Z,37.30
2018-01-21T10:24:24.381Z,37.39
2018-01-21T10:25:24.402Z,37.30
2018-01-21T10:26:24.462Z,36.91
2018-01-21T10:27:24.525Z,37.59
2018-01-21T10:28:24.585Z,36.91
2018-01-21T10:29:24.646Z,37.01
2018-01-21T10:30:24.708Z,37.39
2018-01-21T10:31:24.770Z,36.91
2018-01-21T10:32:24.833Z,37.49
2018-01-21T10:33:24.893Z,37.01
2018-01-21T10:34:24.953Z,37.49
2018-01-21T10:35:25.018Z,37.39
2018-01-21T10:36:25.078Z,37.39
2018-01-21T10:37:25.143Z,37.39
2018-01-21T10:38:25.201Z,37.49
2018-01-21T10:39:25.263Z,37.20
2018-01-21T10:40:25.324Z,37.39
2018-01-21T10:41:25.385Z,37.39
2018-01-21T10:42:25.447Z,37.10
2018-01-21T10:43:25.511Z,37.20
2018-01-21T10:44:25.572Z,37.59
2018-01-21T10:45:25.632Z,37.59
2018-01-21T10:46:25.694Z,37.20
2018-01-21T10:47:25.755Z,37.59
2018-01-21T10:48:25.817Z,37.39
2018-01-21T10:49:25.879Z,37.39
2018-01-21T10:50:25.940Z,37.20
2018-01-21T10:51:26.002Z,37.68
2018-01-21T10:52:26.065Z,37.30
2018-01-21T10:53:26.126Z,37.30
2018-01-21T10:54:26.186Z,37.49
2018-01-21T10:55:26.248Z,37.01
2018-01-21T10:56:26.310Z,37.20
2018-01-21T10:57:26.371Z,37.01
2018-01-21T10:58:26.433Z,37.30
2018-01-21T10:59:26.494Z,37.20
2018-01-21T11:00:26.556Z,37.01
2018-01-21T11:01:26.621Z,37.39
2018-01-21T11:02:26.679Z,37.20
2018-01-21T11:03:26.741Z,36.91
2018-01-21T11:04:26.803Z,37.20
2018-01-21T11:05:26.867Z,37.20
2018-01-21T11:06:26.926Z,36.82
2018-01-21T11:07:26.987Z,37.10
2018-01-21T11:08:27.050Z,37.01
2018-01-21T11:09:27.113Z,37.01
2018-01-21T11:10:27.173Z,36.82
2018-01-21T11:11:27.236Z,37.01
2018-01-21T11:12:27.298Z,37.10
2018-01-21T11:13:27.360Z,37.30
2018-01-21T11:14:27.421Z,37.01
2018-01-21T11:15:27.481Z,37.30
2018-01-21T11:16:27.544Z,37.01
2018-01-21T11:17:27.605Z,36.91
2018-01-21T11:18:27.666Z,36.91
2018-01-21T11:19:27.730Z,37.10
2018-01-21T11:20:27.791Z,37.01
2018-01-21T11:21:27.852Z,37.01
2018-01-21T11:22:27.916Z,36.91
2018-01-21T11:23:27.976Z,36.91
2018-01-21T11:24:28.037Z,36.91
2018-01-21T11:25:28.098Z,36.91
2018-01-21T11:26:28.161Z,36.82
2018-01-21T11:27:28.223Z,37.49
2018-01-21T11:28:28.284Z,37.39
2018-01-21T11:29:28.345Z,37.39
2018-01-21T11:30:28.407Z,37.39
2018-01-21T11:31:28.470Z,37.49
2018-01-21T11:32:28.530Z,37.20
2018-01-21T11:33:28.592Z,37.01
2018-01-21T11:34:28.653Z,37.01
2018-01-21T11:35:28.714Z,37.20
2018-01-21T11:36:28.824Z,37.10
2018-01-21T11:37:28.840Z,37.10
2018-01-21T11:38:28.900Z,37.30
2018-01-21T11:39:28.962Z,37.20
2018-01-21T11:40:29.024Z,37.49
2018-01-21T11:41:29.089Z,37.10
2018-01-21T11:42:29.145Z,37.39
2018-01-21T11:43:29.207Z,37.30
2018-01-21T11:44:29.269Z,37.39
2018-01-21T11:45:29.332Z,37.30
2018-01-21T11:46:29.392Z,37.30
2018-01-21T11:47:29.455Z,37.30
2018-01-21T11:48:29.516Z,37.68
2018-01-21T11:49:29.578Z,37.59
2018-01-21T11:50:29.639Z,37.59
2018-01-21T11:51:29.700Z,37.20
2018-01-21T11:52:29.763Z,37.20
2018-01-21T11:53:29.824Z,37.59
2018-01-21T11:54:29.886Z,37.20
2018-01-21T11:55:29.948Z,37.30
2018-01-21T11:56:30.010Z,36.91
2018-01-21T11:57:30.073Z,36.91
2018-01-21T11:58:30.132Z,36.91
2018-01-21T11:59:30.194Z,37.20
2018-01-21T12:00:30.256Z,37.20
2018-01-21T12:01:30.319Z,37.01
2018-01-21T12:02:30.380Z,37.01
2018-01-21T12:03:30.441Z,36.72
2018-01-21T12:04:30.503Z,36.82
2018-01-21T12:05:30.564Z,37.01
2018-01-21T12:06:30.626Z,36.82
2018-01-21T12:07:30.686Z,37.01
2018-01-21T12:08:30.749Z,36.82
2018-01-21T12:09:30.811Z,37.01
2018-01-21T12:10:30.875Z,36.91
2018-01-21T12:11:30.934Z,36.91
2018-01-21T12:12:30.996Z,36.91
2018-01-21T12:13:31.062Z,37.39
2018-01-21T12:14:31.120Z,36.82
2018-01-21T12:15:31.179Z,37.01
2018-01-21T12:16:31.242Z,37.01
2018-01-21T12:17:31.305Z,36.72
2018-01-21T12:18:31.365Z,36.72
2018-01-21T12:19:31.427Z,36.74
2018-01-21T12:20:31.489Z,36.83
2018-01-21T12:21:31.552Z,36.82
2018-01-21T12:22:31.611Z,36.74
2018-01-21T12:23:31.675Z,36.83
2018-01-21T12:24:31.735Z,36.83
2018-01-21T12:25:31.799Z,36.72
2018-01-21T12:26:31.859Z,36.45
2018-01-21T12:27:31.920Z,36.64
2018-01-21T12:28:31.983Z,36.43
2018-01-21T12:29:32.045Z,36.45
2018-01-21T12:30:32.108Z,36.45
2018-01-21T12:31:32.169Z,36.53
2018-01-21T12:32:32.231Z,36.93
2018-01-21T12:33:32.293Z,36.64
2018-01-21T12:34:32.354Z,36.82
2018-01-21T12:35:32.416Z,36.62
2018-01-21T12:36:32.477Z,36.62
2018-01-21T12:37:32.540Z,36.72
2018-01-21T12:38:32.602Z,36.62
2018-01-21T12:39:32.664Z,36.72
2018-01-21T12:40:32.725Z,36.62
2018-01-21T12:41:32.788Z,36.62
2018-01-21T12:42:32.847Z,36.72
2018-01-21T12:43:32.911Z,36.82
2018-01-21T12:44:32.972Z,36.83
2018-01-21T12:45:33.036Z,36.82
2018-01-21T12:46:33.096Z,36.53
2018-01-21T12:47:33.156Z,36.82
2018-01-21T12:48:33.220Z,36.62
2018-01-21T12:49:33.280Z,36.82
2018-01-21T12:50:33.341Z,36.72
2018-01-21T12:51:33.404Z,36.82
2018-01-21T12:52:33.466Z,37.01
2018-01-21T12:53:33.529Z,36.83